sensor_id;sensor_type;location;lat;lon;timestamp;pressure;altitude;pressure_sealevel;temperature
12875;BMP180;6505;51.114;13.128;2022-10-31T00:01:31;99924.00;;;19.80
12875;BMP180;6505;51.114;13.128;2022-10-31T00:03:59;99930.00;;;19.80
12875;BMP180;6505;51.114;13.128;2022-10-31T00:06:28;99931.00;;;19.70
12875;BMP180;6505;51.114;13.128;2022-10-31T00:09:00;99921.00;;;19.60
12875;BMP180;6505;51.114;13.128;2022-10-31T00:11:29;99924.00;;;19.70
12875;BMP180;6505;51.114;13.128;2022-10-31T00:13:57;99927.00;;;19.70
12875;BMP180;6505;51.114;13.128;2022-10-31T00:16:27;99932.00;;;19.70
12875;BMP180;6505;51.114;13.128;2022-10-31T00:18:59;99936.00;;;19.70
12875;BMP180;6505;51.114;13.128;2022-10-31T00:21:29;99937.00;;;19.60
12875;BMP180;6505;51.114;13.128;2022-10-31T00:23:59;99941.00;;;19.60
12875;BMP180;6505;51.114;13.128;2022-10-31T00:26:28;99935.00;;;19.60
12875;BMP180;6505;51.114;13.128;2022-10-31T00:28:58;99945.00;;;19.60
12875;BMP180;6505;51.114;13.128;2022-10-31T00:31:26;99943.00;;;19.60
12875;BMP180;6505;51.114;13.128;2022-10-31T00:33:55;99948.00;;;19.60
12875;BMP180;6505;51.114;13.128;2022-10-31T00:36:25;99945.00;;;19.60
12875;BMP180;6505;51.114;13.128;2022-10-31T00:38:53;99944.00;;;19.60
12875;BMP180;6505;51.114;13.128;2022-10-31T00:41:22;99950.00;;;19.50
12875;BMP180;6505;51.114;13.128;2022-10-31T00:43:50;99949.00;;;19.60
12875;BMP180;6505;51.114;13.128;2022-10-31T00:46:18;99945.00;;;19.50
12875;BMP180;6505;51.114;13.128;2022-10-31T00:48:49;99943.00;;;19.50
12875;BMP180;6505;51.114;13.128;2022-10-31T00:51:17;99953.00;;;19.50
12875;BMP180;6505;51.114;13.128;2022-10-31T00:53:45;99960.00;;;19.50
12875;BMP180;6505;51.114;13.128;2022-10-31T00:56:13;99956.00;;;19.50
12875;BMP180;6505;51.114;13.128;2022-10-31T00:58:43;99957.00;;;19.50
12875;BMP180;6505;51.114;13.128;2022-10-31T01:01:11;99958.00;;;19.50
12875;BMP180;6505;51.114;13.128;2022-10-31T01:03:39;99954.00;;;19.40
12875;BMP180;6505;51.114;13.128;2022-10-31T01:06:13;99957.00;;;19.40
12875;BMP180;6505;51.114;13.128;2022-10-31T01:08:41;99959.00;;;19.40
12875;BMP180;6505;51.114;13.128;2022-10-31T01:11:15;99958.00;;;19.40
12875;BMP180;6505;51.114;13.128;2022-10-31T01:13:46;99966.00;;;19.40
12875;BMP180;6505;51.114;13.128;2022-10-31T01:16:17;99960.00;;;19.30
12875;BMP180;6505;51.114;13.128;2022-10-31T01:18:45;99955.00;;;19.30
12875;BMP180;6505;51.114;13.128;2022-10-31T01:21:17;99953.00;;;19.30
12875;BMP180;6505;51.114;13.128;2022-10-31T01:23:48;99967.00;;;19.30
12875;BMP180;6505;51.114;13.128;2022-10-31T01:26:20;99964.00;;;19.30
12875;BMP180;6505;51.114;13.128;2022-10-31T01:28:53;99950.00;;;19.30
12875;BMP180;6505;51.114;13.128;2022-10-31T01:31:24;99968.00;;;19.20
12875;BMP180;6505;51.114;13.128;2022-10-31T01:33:53;99968.00;;;19.30
12875;BMP180;6505;51.114;13.128;2022-10-31T01:36:25;99955.00;;;19.20
12875;BMP180;6505;51.114;13.128;2022-10-31T01:38:59;99957.00;;;19.20
12875;BMP180;6505;51.114;13.128;2022-10-31T01:41:31;99972.00;;;19.20
12875;BMP180;6505;51.114;13.128;2022-10-31T01:47:16;99964.00;;;19.10
12875;BMP180;6505;51.114;13.128;2022-10-31T01:49:49;99968.00;;;19.10
12875;BMP180;6505;51.114;13.128;2022-10-31T01:52:22;99961.00;;;19.10
12875;BMP180;6505;51.114;13.128;2022-10-31T01:54:57;99958.00;;;19.10
12875;BMP180;6505;51.114;13.128;2022-10-31T01:57:28;99968.00;;;19.10
12875;BMP180;6505;51.114;13.128;2022-10-31T02:00:04;99966.00;;;19.10
12875;BMP180;6505;51.114;13.128;2022-10-31T02:02:39;99968.00;;;19.10
12875;BMP180;6505;51.114;13.128;2022-10-31T02:05:12;99974.00;;;19.10
12875;BMP180;6505;51.114;13.128;2022-10-31T02:07:48;99966.00;;;19.10
12875;BMP180;6505;51.114;13.128;2022-10-31T02:10:27;99968.00;;;19.10
12875;BMP180;6505;51.114;13.128;2022-10-31T02:12:58;99973.00;;;19.00
12875;BMP180;6505;51.114;13.128;2022-10-31T02:15:32;99973.00;;;19.00
12875;BMP180;6505;51.114;13.128;2022-10-31T02:18:00;99980.00;;;19.00
12875;BMP180;6505;51.114;13.128;2022-10-31T02:20:37;99972.00;;;19.00
12875;BMP180;6505;51.114;13.128;2022-10-31T02:26:54;99982.00;;;18.90
12875;BMP180;6505;51.114;13.128;2022-10-31T02:30:03;99971.00;;;18.90
12875;BMP180;6505;51.114;13.128;2022-10-31T02:32:52;99978.00;;;18.90
12875;BMP180;6505;51.114;13.128;2022-10-31T02:35:40;99972.00;;;18.70
12875;BMP180;6505;51.114;13.128;2022-10-31T02:38:26;99975.00;;;18.80
12875;BMP180;6505;51.114;13.128;2022-10-31T02:41:06;99971.00;;;18.80
12875;BMP180;6505;51.114;13.128;2022-10-31T02:43:53;99968.00;;;18.80
12875;BMP180;6505;51.114;13.128;2022-10-31T02:46:30;99973.00;;;18.80
12875;BMP180;6505;51.114;13.128;2022-10-31T02:49:11;99977.00;;;18.80
12875;BMP180;6505;51.114;13.128;2022-10-31T02:51:43;99969.00;;;18.80
12875;BMP180;6505;51.114;13.128;2022-10-31T02:54:23;99973.00;;;18.80
12875;BMP180;6505;51.114;13.128;2022-10-31T02:56:59;99979.00;;;18.80
12875;BMP180;6505;51.114;13.128;2022-10-31T02:59:30;99980.00;;;18.70
12875;BMP180;6505;51.114;13.128;2022-10-31T03:02:21;99982.00;;;18.70
12875;BMP180;6505;51.114;13.128;2022-10-31T03:05:08;99981.00;;;18.70
12875;BMP180;6505;51.114;13.128;2022-10-31T03:07:49;99980.00;;;18.70
12875;BMP180;6505;51.114;13.128;2022-10-31T03:10:34;99995.00;;;18.70
12875;BMP180;6505;51.114;13.128;2022-10-31T03:13:10;99990.00;;;18.70
12875;BMP180;6505;51.114;13.128;2022-10-31T03:15:44;99984.00;;;18.70
12875;BMP180;6505;51.114;13.128;2022-10-31T03:18:18;99992.00;;;18.70
12875;BMP180;6505;51.114;13.128;2022-10-31T03:20:55;99960.00;;;18.60
12875;BMP180;6505;51.114;13.128;2022-10-31T03:23:30;99994.00;;;18.60
12875;BMP180;6505;51.114;13.128;2022-10-31T03:26:03;99993.00;;;18.60
12875;BMP180;6505;51.114;13.128;2022-10-31T03:28:39;99992.00;;;18.60
12875;BMP180;6505;51.114;13.128;2022-10-31T03:31:12;99998.00;;;18.60
12875;BMP180;6505;51.114;13.128;2022-10-31T03:33:44;99993.00;;;18.60
12875;BMP180;6505;51.114;13.128;2022-10-31T03:36:15;100005.00;;;18.60
12875;BMP180;6505;51.114;13.128;2022-10-31T03:38:45;99974.00;;;18.60
12875;BMP180;6505;51.114;13.128;2022-10-31T03:41:21;100009.00;;;18.60
12875;BMP180;6505;51.114;13.128;2022-10-31T03:43:56;99992.00;;;18.50
12875;BMP180;6505;51.114;13.128;2022-10-31T03:46:26;100011.00;;;18.60
12875;BMP180;6505;51.114;13.128;2022-10-31T03:48:58;100014.00;;;18.60
12875;BMP180;6505;51.114;13.128;2022-10-31T03:51:37;100019.00;;;18.50
12875;BMP180;6505;51.114;13.128;2022-10-31T03:54:14;100014.00;;;18.50
12875;BMP180;6505;51.114;13.128;2022-10-31T03:56:49;99980.00;;;18.50
12875;BMP180;6505;51.114;13.128;2022-10-31T03:59:29;100018.00;;;18.50
12875;BMP180;6505;51.114;13.128;2022-10-31T04:02:06;100011.00;;;18.50
12875;BMP180;6505;51.114;13.128;2022-10-31T04:04:36;100016.00;;;18.50
12875;BMP180;6505;51.114;13.128;2022-10-31T04:07:08;100013.00;;;18.50
12875;BMP180;6505;51.114;13.128;2022-10-31T04:09:42;100012.00;;;18.40
12875;BMP180;6505;51.114;13.128;2022-10-31T04:12:15;100012.00;;;18.40
12875;BMP180;6505;51.114;13.128;2022-10-31T04:15:03;100015.00;;;18.40
12875;BMP180;6505;51.114;13.128;2022-10-31T04:17:36;100012.00;;;18.40
12875;BMP180;6505;51.114;13.128;2022-10-31T04:20:07;100016.00;;;18.40
12875;BMP180;6505;51.114;13.128;2022-10-31T04:22:37;100016.00;;;18.40
12875;BMP180;6505;51.114;13.128;2022-10-31T04:25:07;100012.00;;;18.40
12875;BMP180;6505;51.114;13.128;2022-10-31T04:27:36;100027.00;;;18.40
12875;BMP180;6505;51.114;13.128;2022-10-31T04:30:08;100017.00;;;18.40
12875;BMP180;6505;51.114;13.128;2022-10-31T04:32:39;100015.00;;;18.40
12875;BMP180;6505;51.114;13.128;2022-10-31T04:35:07;100012.00;;;18.40
12875;BMP180;6505;51.114;13.128;2022-10-31T04:37:37;100027.00;;;18.40
12875;BMP180;6505;51.114;13.128;2022-10-31T04:40:07;100015.00;;;18.30
12875;BMP180;6505;51.114;13.128;2022-10-31T04:43:01;100026.00;;;18.30
12875;BMP180;6505;51.114;13.128;2022-10-31T04:45:30;100030.00;;;18.30
12875;BMP180;6505;51.114;13.128;2022-10-31T04:47:58;100027.00;;;18.30
12875;BMP180;6505;51.114;13.128;2022-10-31T04:50:30;100031.00;;;18.30
12875;BMP180;6505;51.114;13.128;2022-10-31T04:53:00;100023.00;;;18.30
12875;BMP180;6505;51.114;13.128;2022-10-31T04:55:35;100017.00;;;18.30
12875;BMP180;6505;51.114;13.128;2022-10-31T04:58:12;100023.00;;;18.30
12875;BMP180;6505;51.114;13.128;2022-10-31T05:00:45;100015.00;;;18.30
12875;BMP180;6505;51.114;13.128;2022-10-31T05:03:13;100016.00;;;18.30
12875;BMP180;6505;51.114;13.128;2022-10-31T05:05:42;100016.00;;;18.30
12875;BMP180;6505;51.114;13.128;2022-10-31T05:08:13;100014.00;;;18.20
12875;BMP180;6505;51.114;13.128;2022-10-31T05:10:42;100019.00;;;18.20
12875;BMP180;6505;51.114;13.128;2022-10-31T05:13:10;100020.00;;;18.20
12875;BMP180;6505;51.114;13.128;2022-10-31T05:15:57;100021.00;;;18.20
12875;BMP180;6505;51.114;13.128;2022-10-31T05:18:51;100028.00;;;18.20
12875;BMP180;6505;51.114;13.128;2022-10-31T05:21:38;100032.00;;;18.20
12875;BMP180;6505;51.114;13.128;2022-10-31T05:24:09;100031.00;;;18.10
12875;BMP180;6505;51.114;13.128;2022-10-31T05:26:39;100028.00;;;18.10
12875;BMP180;6505;51.114;13.128;2022-10-31T05:29:07;100031.00;;;18.10
12875;BMP180;6505;51.114;13.128;2022-10-31T05:31:35;100030.00;;;18.10
12875;BMP180;6505;51.114;13.128;2022-10-31T05:34:05;100036.00;;;18.10
12875;BMP180;6505;51.114;13.128;2022-10-31T05:37:02;100032.00;;;18.10
12875;BMP180;6505;51.114;13.128;2022-10-31T05:39:33;100017.00;;;18.10
12875;BMP180;6505;51.114;13.128;2022-10-31T05:42:07;100033.00;;;18.10
12875;BMP180;6505;51.114;13.128;2022-10-31T05:44:35;100044.00;;;18.10
12875;BMP180;6505;51.114;13.128;2022-10-31T05:47:18;100036.00;;;18.00
12875;BMP180;6505;51.114;13.128;2022-10-31T05:50:09;100050.00;;;18.00
12875;BMP180;6505;51.114;13.128;2022-10-31T05:52:55;100044.00;;;18.00
12875;BMP180;6505;51.114;13.128;2022-10-31T05:55:32;100042.00;;;18.00
12875;BMP180;6505;51.114;13.128;2022-10-31T05:58:16;100049.00;;;18.00
12875;BMP180;6505;51.114;13.128;2022-10-31T06:00:59;100046.00;;;18.00
12875;BMP180;6505;51.114;13.128;2022-10-31T06:03:27;100057.00;;;18.00
12875;BMP180;6505;51.114;13.128;2022-10-31T06:05:56;100055.00;;;18.00
12875;BMP180;6505;51.114;13.128;2022-10-31T06:08:29;100050.00;;;17.90
12875;BMP180;6505;51.114;13.128;2022-10-31T06:11:04;100054.00;;;17.90
12875;BMP180;6505;51.114;13.128;2022-10-31T06:13:52;100056.00;;;17.90
12875;BMP180;6505;51.114;13.128;2022-10-31T06:16:24;100057.00;;;17.90
12875;BMP180;6505;51.114;13.128;2022-10-31T06:18:55;100059.00;;;17.90
12875;BMP180;6505;51.114;13.128;2022-10-31T06:21:24;100062.00;;;17.90
12875;BMP180;6505;51.114;13.128;2022-10-31T06:23:52;100063.00;;;17.90
12875;BMP180;6505;51.114;13.128;2022-10-31T06:26:45;100067.00;;;17.90
12875;BMP180;6505;51.114;13.128;2022-10-31T06:29:14;100067.00;;;17.90
12875;BMP180;6505;51.114;13.128;2022-10-31T06:31:57;100077.00;;;17.90
12875;BMP180;6505;51.114;13.128;2022-10-31T06:34:25;100067.00;;;17.90
12875;BMP180;6505;51.114;13.128;2022-10-31T06:36:53;100074.00;;;17.90
12875;BMP180;6505;51.114;13.128;2022-10-31T06:39:24;100066.00;;;17.90
12875;BMP180;6505;51.114;13.128;2022-10-31T06:41:54;100075.00;;;17.90
12875;BMP180;6505;51.114;13.128;2022-10-31T06:44:23;100082.00;;;17.90
12875;BMP180;6505;51.114;13.128;2022-10-31T06:46:54;100076.00;;;17.90
12875;BMP180;6505;51.114;13.128;2022-10-31T06:49:41;100079.00;;;17.90
12875;BMP180;6505;51.114;13.128;2022-10-31T06:52:14;100085.00;;;17.90
12875;BMP180;6505;51.114;13.128;2022-10-31T06:54:43;100086.00;;;17.90
12875;BMP180;6505;51.114;13.128;2022-10-31T06:57:15;100091.00;;;17.90
12875;BMP180;6505;51.114;13.128;2022-10-31T06:59:43;100087.00;;;17.90
12875;BMP180;6505;51.114;13.128;2022-10-31T07:02:16;100089.00;;;17.90
12875;BMP180;6505;51.114;13.128;2022-10-31T07:04:44;100093.00;;;17.90
12875;BMP180;6505;51.114;13.128;2022-10-31T07:07:14;100101.00;;;17.90
12875;BMP180;6505;51.114;13.128;2022-10-31T07:09:42;100090.00;;;17.90
12875;BMP180;6505;51.114;13.128;2022-10-31T07:12:15;100094.00;;;17.90
12875;BMP180;6505;51.114;13.128;2022-10-31T07:14:51;100102.00;;;17.90
12875;BMP180;6505;51.114;13.128;2022-10-31T07:17:23;100094.00;;;17.90
12875;BMP180;6505;51.114;13.128;2022-10-31T07:19:58;100100.00;;;17.90
12875;BMP180;6505;51.114;13.128;2022-10-31T07:22:33;100101.00;;;17.90
12875;BMP180;6505;51.114;13.128;2022-10-31T07:25:03;100101.00;;;17.90
12875;BMP180;6505;51.114;13.128;2022-10-31T07:27:58;100103.00;;;17.90
12875;BMP180;6505;51.114;13.128;2022-10-31T07:30:27;100107.00;;;17.90
12875;BMP180;6505;51.114;13.128;2022-10-31T07:32:56;100112.00;;;17.90
12875;BMP180;6505;51.114;13.128;2022-10-31T07:35:37;100115.00;;;17.90
12875;BMP180;6505;51.114;13.128;2022-10-31T07:38:10;100112.00;;;17.90
12875;BMP180;6505;51.114;13.128;2022-10-31T07:40:39;100120.00;;;18.00
12875;BMP180;6505;51.114;13.128;2022-10-31T07:43:11;100113.00;;;17.90
12875;BMP180;6505;51.114;13.128;2022-10-31T07:45:58;100116.00;;;18.00
12875;BMP180;6505;51.114;13.128;2022-10-31T07:48:58;100122.00;;;18.00
12875;BMP180;6505;51.114;13.128;2022-10-31T07:51:49;100120.00;;;18.00
12875;BMP180;6505;51.114;13.128;2022-10-31T07:54:36;100103.00;;;18.00
12875;BMP180;6505;51.114;13.128;2022-10-31T07:57:07;100113.00;;;18.10
12875;BMP180;6505;51.114;13.128;2022-10-31T07:59:38;100112.00;;;18.10
12875;BMP180;6505;51.114;13.128;2022-10-31T08:02:08;100116.00;;;18.10
12875;BMP180;6505;51.114;13.128;2022-10-31T08:04:43;100116.00;;;18.20
12875;BMP180;6505;51.114;13.128;2022-10-31T08:07:39;100115.00;;;18.20
12875;BMP180;6505;51.114;13.128;2022-10-31T08:10:16;100112.00;;;18.20
12875;BMP180;6505;51.114;13.128;2022-10-31T08:12:44;100130.00;;;18.30
12875;BMP180;6505;51.114;13.128;2022-10-31T08:15:14;100118.00;;;18.30
12875;BMP180;6505;51.114;13.128;2022-10-31T08:17:42;100122.00;;;18.30
12875;BMP180;6505;51.114;13.128;2022-10-31T08:20:10;100123.00;;;18.40
12875;BMP180;6505;51.114;13.128;2022-10-31T08:22:54;100119.00;;;18.30
12875;BMP180;6505;51.114;13.128;2022-10-31T08:25:22;100117.00;;;18.30
12875;BMP180;6505;51.114;13.128;2022-10-31T08:27:52;100116.00;;;18.40
12875;BMP180;6505;51.114;13.128;2022-10-31T08:30:26;100117.00;;;18.40
12875;BMP180;6505;51.114;13.128;2022-10-31T08:33:17;100113.00;;;18.50
12875;BMP180;6505;51.114;13.128;2022-10-31T08:36:04;100119.00;;;18.50
12875;BMP180;6505;51.114;13.128;2022-10-31T08:38:56;100112.00;;;18.50
12875;BMP180;6505;51.114;13.128;2022-10-31T08:41:29;100114.00;;;18.50
12875;BMP180;6505;51.114;13.128;2022-10-31T08:43:58;100112.00;;;18.60
12875;BMP180;6505;51.114;13.128;2022-10-31T08:46:28;100110.00;;;18.60
12875;BMP180;6505;51.114;13.128;2022-10-31T08:48:56;100107.00;;;18.70
12875;BMP180;6505;51.114;13.128;2022-10-31T08:51:24;100100.00;;;18.70
12875;BMP180;6505;51.114;13.128;2022-10-31T08:53:54;100094.00;;;18.70
12875;BMP180;6505;51.114;13.128;2022-10-31T08:56:41;100105.00;;;18.80
12875;BMP180;6505;51.114;13.128;2022-10-31T08:59:23;100101.00;;;18.80
12875;BMP180;6505;51.114;13.128;2022-10-31T09:02:12;100102.00;;;18.80
12875;BMP180;6505;51.114;13.128;2022-10-31T09:04:41;100097.00;;;18.90
12875;BMP180;6505;51.114;13.128;2022-10-31T09:07:09;100100.00;;;18.90
12875;BMP180;6505;51.114;13.128;2022-10-31T09:09:53;100094.00;;;18.90
12875;BMP180;6505;51.114;13.128;2022-10-31T09:12:22;100096.00;;;19.00
12875;BMP180;6505;51.114;13.128;2022-10-31T09:15:10;100094.00;;;19.00
12875;BMP180;6505;51.114;13.128;2022-10-31T09:17:47;100107.00;;;19.00
12875;BMP180;6505;51.114;13.128;2022-10-31T09:20:40;100086.00;;;19.00
12875;BMP180;6505;51.114;13.128;2022-10-31T09:23:11;100096.00;;;19.00
12875;BMP180;6505;51.114;13.128;2022-10-31T09:25:40;100109.00;;;19.10
12875;BMP180;6505;51.114;13.128;2022-10-31T09:28:34;100105.00;;;19.10
12875;BMP180;6505;51.114;13.128;2022-10-31T09:31:07;100098.00;;;19.20
12875;BMP180;6505;51.114;13.128;2022-10-31T09:33:59;100099.00;;;19.20
12875;BMP180;6505;51.114;13.128;2022-10-31T09:36:37;100098.00;;;19.20
12875;BMP180;6505;51.114;13.128;2022-10-31T09:39:24;100100.00;;;19.20
12875;BMP180;6505;51.114;13.128;2022-10-31T09:42:33;100097.00;;;19.20
12875;BMP180;6505;51.114;13.128;2022-10-31T09:45:18;100110.00;;;19.20
12875;BMP180;6505;51.114;13.128;2022-10-31T09:48:07;100093.00;;;19.20
12875;BMP180;6505;51.114;13.128;2022-10-31T09:51:04;100105.00;;;19.30
12875;BMP180;6505;51.114;13.128;2022-10-31T09:53:59;100097.00;;;19.30
12875;BMP180;6505;51.114;13.128;2022-10-31T09:56:32;100097.00;;;19.30
12875;BMP180;6505;51.114;13.128;2022-10-31T09:59:06;100101.00;;;19.40
12875;BMP180;6505;51.114;13.128;2022-10-31T10:01:47;100100.00;;;19.40
12875;BMP180;6505;51.114;13.128;2022-10-31T10:04:37;100109.00;;;19.40
12875;BMP180;6505;51.114;13.128;2022-10-31T10:07:32;100112.00;;;19.40
12875;BMP180;6505;51.114;13.128;2022-10-31T10:10:40;100104.00;;;19.50
12875;BMP180;6505;51.114;13.128;2022-10-31T10:13:51;100100.00;;;19.50
12875;BMP180;6505;51.114;13.128;2022-10-31T10:16:42;100104.00;;;19.50
12875;BMP180;6505;51.114;13.128;2022-10-31T10:19:41;100092.00;;;19.40
12875;BMP180;6505;51.114;13.128;2022-10-31T10:22:26;100090.00;;;19.50
12875;BMP180;6505;51.114;13.128;2022-10-31T10:25:12;100089.00;;;19.60
12875;BMP180;6505;51.114;13.128;2022-10-31T10:27:51;100085.00;;;19.60
12875;BMP180;6505;51.114;13.128;2022-10-31T10:30:23;100091.00;;;19.70
12875;BMP180;6505;51.114;13.128;2022-10-31T10:32:57;100087.00;;;19.70
12875;BMP180;6505;51.114;13.128;2022-10-31T10:35:30;100092.00;;;19.70
12875;BMP180;6505;51.114;13.128;2022-10-31T10:38:13;100080.00;;;19.70
12875;BMP180;6505;51.114;13.128;2022-10-31T10:40:43;100083.00;;;19.80
12875;BMP180;6505;51.114;13.128;2022-10-31T10:43:23;100090.00;;;19.80
12875;BMP180;6505;51.114;13.128;2022-10-31T10:46:13;100073.00;;;19.80
12875;BMP180;6505;51.114;13.128;2022-10-31T10:49:16;100062.00;;;19.80
12875;BMP180;6505;51.114;13.128;2022-10-31T10:51:50;100062.00;;;19.90
12875;BMP180;6505;51.114;13.128;2022-10-31T10:54:54;100054.00;;;19.90
12875;BMP180;6505;51.114;13.128;2022-10-31T10:57:39;100042.00;;;19.90
12875;BMP180;6505;51.114;13.128;2022-10-31T11:00:20;100044.00;;;19.90
12875;BMP180;6505;51.114;13.128;2022-10-31T11:02:50;100041.00;;;20.00
12875;BMP180;6505;51.114;13.128;2022-10-31T11:05:30;100044.00;;;19.90
12875;BMP180;6505;51.114;13.128;2022-10-31T11:08:01;100040.00;;;20.00
12875;BMP180;6505;51.114;13.128;2022-10-31T11:10:30;100051.00;;;20.00
12875;BMP180;6505;51.114;13.128;2022-10-31T11:13:14;100036.00;;;20.00
12875;BMP180;6505;51.114;13.128;2022-10-31T11:15:57;100035.00;;;20.00
12875;BMP180;6505;51.114;13.128;2022-10-31T11:18:29;100031.00;;;20.10
12875;BMP180;6505;51.114;13.128;2022-10-31T11:21:00;100002.00;;;20.10
12875;BMP180;6505;51.114;13.128;2022-10-31T11:23:30;100026.00;;;20.10
12875;BMP180;6505;51.114;13.128;2022-10-31T11:26:03;100027.00;;;20.20
12875;BMP180;6505;51.114;13.128;2022-10-31T11:28:33;100019.00;;;20.20
12875;BMP180;6505;51.114;13.128;2022-10-31T11:31:08;100019.00;;;20.20
12875;BMP180;6505;51.114;13.128;2022-10-31T11:33:40;99992.00;;;20.30
12875;BMP180;6505;51.114;13.128;2022-10-31T11:36:20;100022.00;;;20.30
12875;BMP180;6505;51.114;13.128;2022-10-31T11:38:50;100014.00;;;20.30
12875;BMP180;6505;51.114;13.128;2022-10-31T11:41:26;100014.00;;;20.30
12875;BMP180;6505;51.114;13.128;2022-10-31T11:43:59;100002.00;;;20.30
12875;BMP180;6505;51.114;13.128;2022-10-31T11:46:35;100007.00;;;20.30
12875;BMP180;6505;51.114;13.128;2022-10-31T11:49:05;100009.00;;;20.40
12875;BMP180;6505;51.114;13.128;2022-10-31T11:51:35;100009.00;;;20.40
12875;BMP180;6505;51.114;13.128;2022-10-31T11:54:04;100008.00;;;20.40
12875;BMP180;6505;51.114;13.128;2022-10-31T11:56:42;99997.00;;;20.40
12875;BMP180;6505;51.114;13.128;2022-10-31T11:59:22;100000.00;;;20.40
12875;BMP180;6505;51.114;13.128;2022-10-31T12:01:53;99989.00;;;20.50
12875;BMP180;6505;51.114;13.128;2022-10-31T12:04:36;99986.00;;;20.50
12875;BMP180;6505;51.114;13.128;2022-10-31T12:07:06;99994.00;;;20.50
12875;BMP180;6505;51.114;13.128;2022-10-31T12:09:36;99991.00;;;20.50
12875;BMP180;6505;51.114;13.128;2022-10-31T12:12:43;99994.00;;;20.50
12875;BMP180;6505;51.114;13.128;2022-10-31T12:15:34;99972.00;;;20.50
12875;BMP180;6505;51.114;13.128;2022-10-31T12:18:28;99969.00;;;20.60
12875;BMP180;6505;51.114;13.128;2022-10-31T12:21:16;99974.00;;;20.60
12875;BMP180;6505;51.114;13.128;2022-10-31T12:24:00;99970.00;;;20.60
12875;BMP180;6505;51.114;13.128;2022-10-31T12:26:41;99977.00;;;20.60
12875;BMP180;6505;51.114;13.128;2022-10-31T12:29:29;99970.00;;;20.60
12875;BMP180;6505;51.114;13.128;2022-10-31T12:32:24;99961.00;;;20.60
12875;BMP180;6505;51.114;13.128;2022-10-31T12:35:24;99955.00;;;20.60
12875;BMP180;6505;51.114;13.128;2022-10-31T12:38:25;99956.00;;;20.60
12875;BMP180;6505;51.114;13.128;2022-10-31T12:41:21;99949.00;;;20.70
12875;BMP180;6505;51.114;13.128;2022-10-31T12:47:09;99946.00;;;20.70
12875;BMP180;6505;51.114;13.128;2022-10-31T12:49:54;99947.00;;;20.70
12875;BMP180;6505;51.114;13.128;2022-10-31T12:52:46;99939.00;;;20.80
12875;BMP180;6505;51.114;13.128;2022-10-31T12:55:34;99935.00;;;20.80
12875;BMP180;6505;51.114;13.128;2022-10-31T12:58:10;99936.00;;;20.80
12875;BMP180;6505;51.114;13.128;2022-10-31T13:00:46;99929.00;;;20.80
12875;BMP180;6505;51.114;13.128;2022-10-31T13:03:28;99932.00;;;20.90
12875;BMP180;6505;51.114;13.128;2022-10-31T13:06:04;99922.00;;;20.90
12875;BMP180;6505;51.114;13.128;2022-10-31T13:08:39;99924.00;;;20.90
12875;BMP180;6505;51.114;13.128;2022-10-31T13:11:16;99931.00;;;20.90
12875;BMP180;6505;51.114;13.128;2022-10-31T13:13:57;99906.00;;;21.00
12875;BMP180;6505;51.114;13.128;2022-10-31T13:16:33;99919.00;;;21.00
12875;BMP180;6505;51.114;13.128;2022-10-31T13:19:10;99919.00;;;21.00
12875;BMP180;6505;51.114;13.128;2022-10-31T13:21:51;99921.00;;;21.00
12875;BMP180;6505;51.114;13.128;2022-10-31T13:24:28;99915.00;;;21.10
12875;BMP180;6505;51.114;13.128;2022-10-31T13:27:01;99918.00;;;21.10
12875;BMP180;6505;51.114;13.128;2022-10-31T13:29:37;99912.00;;;21.10
12875;BMP180;6505;51.114;13.128;2022-10-31T13:32:08;99910.00;;;21.20
12875;BMP180;6505;51.114;13.128;2022-10-31T13:34:42;99902.00;;;21.10
12875;BMP180;6505;51.114;13.128;2022-10-31T13:37:25;99906.00;;;21.10
12875;BMP180;6505;51.114;13.128;2022-10-31T13:40:13;99897.00;;;21.20
12875;BMP180;6505;51.114;13.128;2022-10-31T13:42:55;99908.00;;;21.20
12875;BMP180;6505;51.114;13.128;2022-10-31T13:45:26;99904.00;;;21.30
12875;BMP180;6505;51.114;13.128;2022-10-31T13:48:00;99855.00;;;21.20
12875;BMP180;6505;51.114;13.128;2022-10-31T13:50:32;99898.00;;;21.30
12875;BMP180;6505;51.114;13.128;2022-10-31T13:53:12;99893.00;;;21.30
12875;BMP180;6505;51.114;13.128;2022-10-31T13:55:43;99883.00;;;21.30
12875;BMP180;6505;51.114;13.128;2022-10-31T13:58:25;99896.00;;;21.30
12875;BMP180;6505;51.114;13.128;2022-10-31T14:01:13;99881.00;;;21.30
12875;BMP180;6505;51.114;13.128;2022-10-31T14:03:54;99874.00;;;21.30
12875;BMP180;6505;51.114;13.128;2022-10-31T14:06:45;99882.00;;;21.40
12875;BMP180;6505;51.114;13.128;2022-10-31T14:09:26;99844.00;;;21.40
12875;BMP180;6505;51.114;13.128;2022-10-31T14:11:58;99881.00;;;21.40
12875;BMP180;6505;51.114;13.128;2022-10-31T14:14:42;99874.00;;;21.40
12875;BMP180;6505;51.114;13.128;2022-10-31T14:17:21;99876.00;;;21.40
12875;BMP180;6505;51.114;13.128;2022-10-31T14:20:24;99861.00;;;21.40
12875;BMP180;6505;51.114;13.128;2022-10-31T14:22:54;99877.00;;;21.50
12875;BMP180;6505;51.114;13.128;2022-10-31T14:25:29;99876.00;;;21.40
12875;BMP180;6505;51.114;13.128;2022-10-31T14:27:59;99871.00;;;21.50
12875;BMP180;6505;51.114;13.128;2022-10-31T14:30:30;99874.00;;;21.50
12875;BMP180;6505;51.114;13.128;2022-10-31T14:33:01;99869.00;;;21.50
12875;BMP180;6505;51.114;13.128;2022-10-31T14:35:48;99860.00;;;21.50
12875;BMP180;6505;51.114;13.128;2022-10-31T14:38:38;99869.00;;;21.50
12875;BMP180;6505;51.114;13.128;2022-10-31T14:41:34;99863.00;;;21.50
12875;BMP180;6505;51.114;13.128;2022-10-31T14:44:50;99863.00;;;21.50
12875;BMP180;6505;51.114;13.128;2022-10-31T14:47:34;99861.00;;;21.50
12875;BMP180;6505;51.114;13.128;2022-10-31T14:50:25;99845.00;;;21.50
12875;BMP180;6505;51.114;13.128;2022-10-31T14:53:00;99851.00;;;21.50
12875;BMP180;6505;51.114;13.128;2022-10-31T14:55:31;99843.00;;;21.50
12875;BMP180;6505;51.114;13.128;2022-10-31T14:58:03;99844.00;;;21.50
12875;BMP180;6505;51.114;13.128;2022-10-31T15:00:34;99838.00;;;21.50
12875;BMP180;6505;51.114;13.128;2022-10-31T15:03:14;99840.00;;;21.50
12875;BMP180;6505;51.114;13.128;2022-10-31T15:05:49;99834.00;;;21.60
12875;BMP180;6505;51.114;13.128;2022-10-31T15:08:33;99839.00;;;21.50